createdAt,value
2022-08-25T00:01:59.751Z,22.30
2022-08-25T00:04:27.673Z,22.30
2022-08-25T00:07:00.693Z,22.30
2022-08-25T00:09:30.951Z,22.20
2022-08-25T00:11:57.927Z,22.20
2022-08-25T00:14:30.876Z,22.10
2022-08-25T00:16:57.874Z,22.10
2022-08-25T00:19:28.243Z,22.10
2022-08-25T00:21:55.784Z,22.10
2022-08-25T00:24:23.012Z,22.20
2022-08-25T00:26:51.826Z,22.20
2022-08-25T00:29:18.930Z,22.20
2022-08-25T00:31:46.211Z,22.30
2022-08-25T00:34:15.966Z,22.30
2022-08-25T00:36:43.801Z,22.20
2022-08-25T00:39:11.538Z,22.20
2022-08-25T00:41:40.504Z,22.10
2022-08-25T00:44:09.485Z,22.10
2022-08-25T00:46:46.066Z,22.10
2022-08-25T00:49:20.856Z,22.10
2022-08-25T00:51:55.539Z,22.10
2022-08-25T00:54:29.266Z,22.00
2022-08-25T00:56:56.770Z,22.00
2022-08-25T00:59:23.911Z,21.90
2022-08-25T01:01:51.418Z,21.90
2022-08-25T01:04:18.825Z,21.80
2022-08-25T01:06:45.976Z,21.70
2022-08-25T01:09:14.072Z,21.70
2022-08-25T01:11:42.254Z,21.70
2022-08-25T01:14:09.275Z,21.70
2022-08-25T01:16:37.482Z,21.80
2022-08-25T01:19:08.122Z,21.80
2022-08-25T01:21:40.371Z,21.80
2022-08-25T01:24:07.507Z,21.70
2022-08-25T01:26:36.028Z,21.70
2022-08-25T01:29:21.103Z,21.60
2022-08-25T01:32:00.589Z,21.60
2022-08-25T01:34:32.993Z,21.50
2022-08-25T01:37:01.038Z,21.50
2022-08-25T01:39:31.046Z,21.50
2022-08-25T01:42:12.278Z,21.50
2022-08-25T01:44:44.326Z,21.40
2022-08-25T01:47:12.487Z,21.30
2022-08-25T01:49:39.524Z,21.30
2022-08-25T01:52:25.984Z,21.40
2022-08-25T01:54:53.015Z,21.50
2022-08-25T01:57:20.140Z,21.40
2022-08-25T01:59:47.705Z,21.50
2022-08-25T02:02:15.022Z,21.40
2022-08-25T02:04:45.535Z,21.40
2022-08-25T02:07:12.860Z,21.40
2022-08-25T02:09:39.805Z,21.40
2022-08-25T02:12:07.100Z,21.50
2022-08-25T02:14:35.724Z,21.40
2022-08-25T02:17:05.910Z,21.40
2022-08-25T02:19:33.183Z,21.30
2022-08-25T02:22:00.739Z,21.40
2022-08-25T02:24:27.720Z,21.50
2022-08-25T02:26:55.398Z,21.50
2022-08-25T02:29:22.368Z,21.50
2022-08-25T02:31:49.280Z,21.50
2022-08-25T02:34:16.528Z,21.60
2022-08-25T02:36:43.888Z,21.60
2022-08-25T02:39:11.460Z,21.60
2022-08-25T02:41:39.138Z,21.50
2022-08-25T02:44:06.476Z,21.50
2022-08-25T02:46:33.534Z,21.40
2022-08-25T02:49:00.712Z,21.50
2022-08-25T02:51:31.791Z,21.30
2022-08-25T02:54:02.251Z,21.20
2022-08-25T02:56:30.915Z,21.10
2022-08-25T02:58:58.253Z,21.10
2022-08-25T03:01:28.673Z,21.10
2022-08-25T03:03:57.046Z,21.10
2022-08-25T03:06:25.019Z,21.10
2022-08-25T03:08:53.406Z,21.20
2022-08-25T03:11:21.108Z,21.20
2022-08-25T03:13:51.218Z,21.20
2022-08-25T03:16:19.358Z,21.10
2022-08-25T03:18:46.706Z,21.10
2022-08-25T03:21:13.867Z,21.00
2022-08-25T03:23:43.662Z,20.90
2022-08-25T03:26:31.040Z,20.80
2022-08-25T03:28:58.997Z,20.60
2022-08-25T03:31:27.909Z,20.60
2022-08-25T03:33:55.742Z,20.60
2022-08-25T03:36:23.225Z,20.60
2022-08-25T03:38:51.036Z,20.50
2022-08-25T03:41:23.450Z,20.50
2022-08-25T03:43:53.639Z,20.40
2022-08-25T03:46:25.429Z,20.50
2022-08-25T03:48:52.709Z,20.50
2022-08-25T03:51:24.408Z,20.50
2022-08-25T03:53:53.228Z,20.50
2022-08-25T03:56:20.237Z,20.50
2022-08-25T03:58:48.000Z,20.50
2022-08-25T04:01:16.152Z,20.50
2022-08-25T04:03:45.573Z,20.40
2022-08-25T04:06:12.780Z,20.50
2022-08-25T04:08:39.794Z,20.50
2022-08-25T04:11:11.847Z,20.40
2022-08-25T04:13:39.120Z,20.40
2022-08-25T04:16:18.679Z,20.30
2022-08-25T04:18:46.661Z,20.30
2022-08-25T04:21:14.268Z,20.30
2022-08-25T04:23:42.705Z,20.20
2022-08-25T04:26:14.732Z,20.20
2022-08-25T04:28:41.900Z,20.10
2022-08-25T04:31:11.889Z,20.10
2022-08-25T04:33:40.348Z,20.20
2022-08-25T04:36:12.385Z,20.20
2022-08-25T04:38:42.053Z,20.10
2022-08-25T04:41:10.853Z,20.00
2022-08-25T04:43:39.918Z,19.90
2022-08-25T04:46:20.186Z,20.00
2022-08-25T04:48:52.898Z,20.00
2022-08-25T04:51:28.035Z,20.00
2022-08-25T04:53:55.981Z,20.10
2022-08-25T04:56:25.184Z,20.00
2022-08-25T04:58:54.573Z,20.00
2022-08-25T05:01:24.669Z,20.00
2022-08-25T05:03:57.355Z,19.90
2022-08-25T05:06:24.369Z,19.90
2022-08-25T05:08:51.689Z,19.90
2022-08-25T05:11:19.418Z,19.80
2022-08-25T05:13:51.328Z,19.80
2022-08-25T05:16:20.082Z,19.90
2022-08-25T05:18:48.030Z,20.00
2022-08-25T05:21:17.740Z,20.00
2022-08-25T05:23:44.735Z,19.90
2022-08-25T05:26:21.047Z,19.90
2022-08-25T05:28:49.992Z,19.90
2022-08-25T05:31:17.304Z,20.00
2022-08-25T05:33:44.589Z,19.90
2022-08-25T05:36:13.307Z,19.90
2022-08-25T05:38:41.905Z,20.00
2022-08-25T05:41:11.007Z,20.00
2022-08-25T05:43:38.700Z,20.00
2022-08-25T05:46:05.983Z,20.00
2022-08-25T05:48:33.568Z,20.00
2022-08-25T05:51:01.834Z,20.10
2022-08-25T05:53:31.030Z,20.10
2022-08-25T05:56:01.535Z,20.10
2022-08-25T05:58:29.378Z,20.20
2022-08-25T06:00:57.329Z,20.20
2022-08-25T06:03:24.536Z,20.10
2022-08-25T06:05:51.505Z,20.20
2022-08-25T06:08:19.574Z,20.20
2022-08-25T06:10:51.807Z,20.30
2022-08-25T06:13:18.878Z,20.30
2022-08-25T06:16:00.606Z,20.30
2022-08-25T06:18:27.597Z,20.30
2022-08-25T06:20:54.558Z,20.40
2022-08-25T06:23:21.886Z,20.40
2022-08-25T06:25:53.190Z,20.40
2022-08-25T06:28:21.138Z,20.50
2022-08-25T06:30:48.176Z,20.50
2022-08-25T06:33:15.260Z,20.50
2022-08-25T06:35:43.292Z,20.60
2022-08-25T06:38:11.062Z,20.60
2022-08-25T06:40:38.143Z,20.70
2022-08-25T06:43:08.920Z,20.80
2022-08-25T06:45:36.023Z,20.80
2022-08-25T06:48:06.074Z,20.80
2022-08-25T06:50:33.400Z,20.90
2022-08-25T06:53:00.949Z,21.00
2022-08-25T06:55:27.896Z,21.00
2022-08-25T06:57:55.226Z,21.00
2022-08-25T07:00:23.084Z,21.10
2022-08-25T07:02:59.131Z,21.20
2022-08-25T07:05:40.819Z,21.40
2022-08-25T07:08:13.190Z,21.50
2022-08-25T07:10:40.415Z,21.80
2022-08-25T07:13:07.340Z,22.20
2022-08-25T07:15:38.742Z,22.50
2022-08-25T07:18:06.210Z,22.80
2022-08-25T07:20:36.483Z,23.10
2022-08-25T07:23:12.739Z,23.40
2022-08-25T07:25:39.923Z,23.60
2022-08-25T07:28:06.889Z,23.70
2022-08-25T07:30:38.545Z,24.00
2022-08-25T07:33:12.997Z,24.10
2022-08-25T07:35:41.186Z,24.20
2022-08-25T07:38:13.050Z,24.40
2022-08-25T07:40:51.103Z,24.50
2022-08-25T07:43:21.594Z,24.70
2022-08-25T07:45:51.693Z,24.70
2022-08-25T07:48:41.668Z,24.80
2022-08-25T07:51:14.481Z,25.00
2022-08-25T07:53:41.768Z,25.10
2022-08-25T07:56:13.316Z,25.10
2022-08-25T07:58:41.167Z,25.20
2022-08-25T08:01:13.436Z,25.20
2022-08-25T08:03:50.370Z,25.20
2022-08-25T08:06:22.787Z,25.40
2022-08-25T08:08:54.530Z,25.60
2022-08-25T08:11:30.814Z,25.40
2022-08-25T08:13:59.963Z,25.60
2022-08-25T08:16:30.229Z,25.80
2022-08-25T08:18:59.256Z,25.90
2022-08-25T08:21:33.974Z,26.00
2022-08-25T08:24:02.071Z,26.20
2022-08-25T08:26:55.156Z,26.30
2022-08-25T08:29:21.835Z,26.30
2022-08-25T08:31:49.554Z,26.40
2022-08-25T08:34:17.042Z,26.40
2022-08-25T08:36:45.366Z,26.30
2022-08-25T08:39:12.509Z,26.40
2022-08-25T08:42:17.488Z,26.50
2022-08-25T08:44:57.037Z,26.50
2022-08-25T08:47:59.075Z,26.60
2022-08-25T08:50:55.704Z,26.70
2022-08-25T08:53:42.370Z,27.00
2022-08-25T08:56:15.097Z,27.00
2022-08-25T08:58:54.507Z,26.80
2022-08-25T09:02:02.084Z,27.00
2022-08-25T09:04:49.982Z,27.20
2022-08-25T09:07:30.919Z,27.00
2022-08-25T09:10:05.066Z,27.20
2022-08-25T09:12:48.287Z,27.30
2022-08-25T09:15:22.930Z,27.50
2022-08-25T09:18:31.101Z,27.70
2022-08-25T09:21:31.578Z,27.90
2022-08-25T09:24:28.029Z,27.80
2022-08-25T09:27:19.288Z,27.70
2022-08-25T09:30:05.812Z,27.70
2022-08-25T09:32:49.019Z,27.70
2022-08-25T09:35:28.130Z,27.70
2022-08-25T09:38:07.861Z,27.70
2022-08-25T09:40:37.833Z,27.70
2022-08-25T09:43:09.572Z,27.70
2022-08-25T09:45:45.678Z,27.90
2022-08-25T09:48:41.013Z,27.90
2022-08-25T09:51:38.138Z,27.90
2022-08-25T09:54:12.591Z,28.00
2022-08-25T09:57:01.202Z,28.00
2022-08-25T09:59:35.873Z,27.90
2022-08-25T10:02:21.269Z,28.00
2022-08-25T10:04:48.458Z,28.10
2022-08-25T10:07:29.125Z,28.00
2022-08-25T10:10:01.688Z,28.00
2022-08-25T10:12:42.948Z,28.00
2022-08-25T10:15:29.373Z,28.00
2022-08-25T10:18:17.840Z,28.00
2022-08-25T10:20:45.144Z,28.10
2022-08-25T10:23:14.421Z,28.20
2022-08-25T10:25:57.684Z,28.30
2022-08-25T10:28:35.614Z,28.40
2022-08-25T10:31:05.819Z,28.30
2022-08-25T10:33:51.431Z,28.30
2022-08-25T10:36:47.041Z,28.20
2022-08-25T10:39:40.692Z,28.20
2022-08-25T10:42:19.984Z,28.30
2022-08-25T10:45:37.902Z,28.50
2022-08-25T10:48:26.013Z,28.50
2022-08-25T10:51:23.705Z,28.70
2022-08-25T10:54:16.134Z,28.70
2022-08-25T10:57:12.047Z,28.70
2022-08-25T11:00:06.033Z,28.80
2022-08-25T11:03:11.875Z,28.90
2022-08-25T11:05:45.753Z,29.00
2022-08-25T11:08:21.536Z,29.00
2022-08-25T11:10:54.815Z,29.10
2022-08-25T11:13:30.453Z,29.10
2022-08-25T11:16:17.396Z,29.10
2022-08-25T11:18:57.577Z,29.10
2022-08-25T11:21:29.520Z,29.00
2022-08-25T11:24:11.115Z,29.00
2022-08-25T11:26:38.426Z,29.10
2022-08-25T11:29:16.646Z,29.30
2022-08-25T11:31:53.899Z,29.40
2022-08-25T11:34:21.849Z,29.20
2022-08-25T11:36:55.426Z,29.30
2022-08-25T11:39:37.901Z,29.30
2022-08-25T11:42:17.399Z,29.40
2022-08-25T11:45:03.945Z,29.60
2022-08-25T11:47:35.248Z,29.80
2022-08-25T11:50:06.641Z,29.90
2022-08-25T11:52:34.829Z,29.80
2022-08-25T11:55:22.779Z,29.60
2022-08-25T11:57:53.606Z,29.60
2022-08-25T12:00:41.022Z,29.60
2022-08-25T12:03:34.097Z,29.70
2022-08-25T12:06:19.283Z,29.80
2022-08-25T12:08:54.331Z,29.90
2022-08-25T12:11:51.562Z,29.70
2022-08-25T12:14:37.391Z,29.60
2022-08-25T12:17:12.196Z,29.80
2022-08-25T12:19:40.190Z,29.70
2022-08-25T12:22:09.194Z,29.60
2022-08-25T12:24:47.897Z,29.80
2022-08-25T12:27:34.061Z,29.90
2022-08-25T12:30:21.599Z,30.20
2022-08-25T12:33:14.170Z,30.10
2022-08-25T12:35:56.240Z,30.10
2022-08-25T12:38:43.279Z,30.20
2022-08-25T12:41:18.907Z,30.30
2022-08-25T12:43:49.238Z,30.30
2022-08-25T12:46:29.844Z,30.40
2022-08-25T12:49:15.481Z,30.20
2022-08-25T12:51:51.163Z,30.30
2022-08-25T15:49:04.803Z,30.60
2022-08-25T15:51:35.128Z,30.70
2022-08-25T15:54:02.649Z,30.50
2022-08-25T15:56:33.714Z,30.60
2022-08-25T15:59:01.793Z,30.50
2022-08-25T16:01:30.703Z,30.40
2022-08-25T16:03:57.807Z,30.30
2022-08-25T16:06:27.822Z,30.30
2022-08-25T16:08:54.849Z,30.20
2022-08-25T16:11:24.801Z,30.30
2022-08-25T16:13:52.843Z,30.30
2022-08-25T16:16:21.657Z,30.20
2022-08-25T16:18:48.759Z,30.20
2022-08-25T16:21:20.152Z,30.20
2022-08-25T16:23:47.274Z,30.10
2022-08-25T16:26:16.560Z,30.00
2022-08-25T16:28:44.981Z,30.00
2022-08-25T16:31:13.806Z,30.10
2022-08-25T16:36:11.825Z,30.20
2022-08-25T16:38:40.638Z,30.20
2022-08-25T16:41:18.443Z,30.20
2022-08-25T16:43:45.787Z,30.20
2022-08-25T16:46:14.587Z,30.20
2022-08-25T16:48:42.019Z,30.20
2022-08-25T16:51:14.528Z,30.20
2022-08-25T16:54:00.610Z,30.20
2022-08-25T16:56:28.964Z,30.10
2022-08-25T16:59:00.856Z,30.10
2022-08-25T17:01:34.439Z,30.10
2022-08-25T17:04:01.815Z,30.00
2022-08-25T17:06:34.432Z,30.00
2022-08-25T17:09:02.024Z,30.00
2022-08-25T17:11:35.120Z,29.90
2022-08-25T17:14:06.813Z,29.80
2022-08-25T17:16:38.363Z,29.80
2022-08-25T17:19:08.728Z,29.70
2022-08-25T17:21:45.159Z,29.70
2022-08-25T17:24:13.502Z,29.60
2022-08-25T17:26:42.016Z,29.50
2022-08-25T17:29:09.403Z,29.40
2022-08-25T17:31:39.853Z,29.40
2022-08-25T17:34:10.450Z,29.40
2022-08-25T17:36:38.118Z,29.40
2022-08-25T17:39:07.770Z,29.30
2022-08-25T17:41:37.782Z,29.30
2022-08-25T17:44:05.039Z,29.20
2022-08-25T17:46:32.601Z,29.10
2022-08-25T17:49:00.039Z,29.00
2022-08-25T17:51:27.077Z,28.80
2022-08-25T17:53:59.121Z,28.80
2022-08-25T17:56:27.270Z,28.70
2022-08-25T17:58:57.763Z,28.60
2022-08-25T18:01:27.526Z,28.50
2022-08-25T18:03:54.860Z,28.50
2022-08-25T18:06:23.446Z,28.40
2022-08-25T18:08:52.989Z,28.40
2022-08-25T18:11:21.630Z,28.30
2022-08-25T18:13:50.435Z,28.20
2022-08-25T18:16:17.852Z,28.10
2022-08-25T18:18:44.810Z,28.00
2022-08-25T18:21:16.796Z,28.00
2022-08-25T18:23:44.435Z,27.90
2022-08-25T18:26:12.817Z,27.80
2022-08-25T18:28:40.099Z,27.70
2022-08-25T18:31:13.131Z,27.60
2022-08-25T18:33:44.672Z,27.50
2022-08-25T18:36:12.376Z,27.30
2022-08-25T18:38:59.099Z,27.40
2022-08-25T18:41:27.206Z,27.60
2022-08-25T18:43:54.754Z,27.80
2022-08-25T18:46:22.672Z,27.90
2022-08-25T18:48:52.799Z,27.90
2022-08-25T18:51:23.131Z,27.90
2022-08-25T18:53:54.586Z,27.70
2022-08-25T18:56:26.652Z,27.70
2022-08-25T18:58:53.770Z,27.70
2022-08-25T19:01:21.437Z,27.60
2022-08-25T19:03:48.850Z,27.60
2022-08-25T19:06:16.548Z,27.50
2022-08-25T19:08:44.686Z,27.40
2022-08-25T19:11:12.386Z,27.30
2022-08-25T19:13:39.638Z,27.30
2022-08-25T19:16:20.820Z,27.20
2022-08-25T19:18:50.530Z,27.00
2022-08-25T19:21:22.552Z,26.90
2022-08-25T19:23:51.634Z,26.60
2022-08-25T19:26:20.307Z,26.50
2022-08-25T19:28:49.657Z,26.50
2022-08-25T19:31:20.219Z,26.50
2022-08-25T19:33:52.660Z,26.40
2022-08-25T19:36:24.495Z,26.40
2022-08-25T19:38:58.926Z,26.30
2022-08-25T19:41:28.284Z,26.20
2022-08-25T19:43:57.640Z,26.20
2022-08-25T19:46:35.520Z,25.80
2022-08-25T19:49:15.075Z,25.90
2022-08-25T19:51:50.575Z,25.80
2022-08-25T19:54:37.184Z,25.70
2022-08-25T19:57:07.890Z,25.70
2022-08-25T19:59:43.537Z,25.70
2022-08-25T20:02:26.143Z,25.60
2022-08-25T20:05:00.064Z,25.50
2022-08-25T20:07:32.634Z,25.40
2022-08-25T20:10:00.953Z,25.40
2022-08-25T20:12:29.277Z,25.40
2022-08-25T20:14:57.465Z,25.10
2022-08-25T20:17:28.516Z,25.10
2022-08-25T20:20:00.502Z,25.00
2022-08-25T20:22:30.417Z,25.00
2022-08-25T20:25:01.744Z,25.00
2022-08-25T20:27:35.152Z,24.90
2022-08-25T20:30:05.081Z,25.00
2022-08-25T20:32:33.822Z,24.80
2022-08-25T20:35:02.089Z,24.70
2022-08-25T20:37:29.738Z,24.70
2022-08-25T20:39:56.999Z,24.50
2022-08-25T20:42:24.261Z,24.50
2022-08-25T20:44:52.443Z,24.50
2022-08-25T20:47:22.771Z,24.50
2022-08-25T20:49:50.276Z,24.50
2022-08-25T20:52:18.601Z,24.50
2022-08-25T20:54:46.895Z,24.40
2022-08-25T20:57:17.825Z,24.40
2022-08-25T20:59:44.837Z,24.20
2022-08-25T21:02:14.033Z,24.20
2022-08-25T21:04:50.224Z,24.20
2022-08-25T21:07:18.706Z,24.10
2022-08-25T21:09:46.272Z,24.10
2022-08-25T21:12:16.106Z,24.00
2022-08-25T21:14:44.039Z,24.00
2022-08-25T21:17:12.695Z,23.90
2022-08-25T21:19:40.240Z,23.90
2022-08-25T21:22:09.545Z,23.90
2022-08-25T21:24:38.497Z,23.80
2022-08-25T21:27:05.620Z,23.80
2022-08-25T21:29:33.345Z,23.80
2022-08-25T21:32:00.876Z,23.70
2022-08-25T21:34:29.002Z,23.80
2022-08-25T21:36:58.191Z,23.70
2022-08-25T21:39:28.157Z,23.80
2022-08-25T21:41:56.659Z,23.70
2022-08-25T21:44:23.904Z,23.60
2022-08-25T21:46:54.170Z,23.60
2022-08-25T21:49:22.530Z,23.60
2022-08-25T21:51:59.570Z,23.50
2022-08-25T21:54:29.045Z,23.30
2022-08-25T21:57:06.835Z,23.20
2022-08-25T21:59:36.259Z,23.20
2022-08-25T22:02:08.981Z,23.30
2022-08-25T22:04:37.186Z,23.30
2022-08-25T22:07:06.909Z,23.30
2022-08-25T22:09:34.318Z,23.30
2022-08-25T22:12:03.816Z,23.10
2022-08-25T22:14:31.547Z,23.00
2022-08-25T22:16:59.743Z,23.00
2022-08-25T22:19:26.826Z,23.10
2022-08-25T22:21:54.706Z,23.10
2022-08-25T22:24:21.768Z,22.90
2022-08-25T22:26:49.234Z,22.90
2022-08-25T22:29:25.403Z,22.80
2022-08-25T22:31:59.604Z,22.80
2022-08-25T22:34:30.593Z,22.90
2022-08-25T22:37:00.270Z,22.90
2022-08-25T22:39:27.541Z,22.70
2022-08-25T22:41:54.504Z,22.80
2022-08-25T22:44:23.416Z,22.80
2022-08-25T22:46:50.437Z,22.70
2022-08-25T22:49:17.905Z,22.70
2022-08-25T22:51:47.087Z,22.80
2022-08-25T22:54:15.273Z,22.80
2022-08-25T22:56:42.489Z,22.80
2022-08-25T22:59:12.192Z,22.80
2022-08-25T23:01:39.619Z,22.70
2022-08-25T23:04:07.090Z,22.60
2022-08-25T23:06:36.786Z,22.60
2022-08-25T23:09:06.552Z,22.60
2022-08-25T23:11:33.570Z,22.70
2022-08-25T23:14:00.942Z,22.60
2022-08-25T23:16:28.741Z,22.70
2022-08-25T23:18:55.740Z,22.70
2022-08-25T23:21:42.545Z,22.60
2022-08-25T23:24:11.143Z,22.60
2022-08-25T23:26:41.811Z,22.60
2022-08-25T23:29:17.784Z,22.50
2022-08-25T23:31:46.805Z,22.60
2022-08-25T23:34:15.784Z,22.60
2022-08-25T23:36:43.369Z,22.50
2022-08-25T23:39:10.999Z,22.50
2022-08-25T23:41:38.216Z,22.50
2022-08-25T23:44:05.784Z,22.60
2022-08-25T23:46:35.840Z,22.60
2022-08-25T23:49:08.253Z,22.60
2022-08-25T23:51:37.969Z,22.60
2022-08-25T23:54:09.202Z,22.60
2022-08-25T23:56:36.922Z,22.70
2022-08-25T23:59:10.887Z,22.70
